Airfield :
LOGIN :

Register | Disclaimer

   EN    FR    IT 

 










Legend :    VFR   Marginal VFR   IFR   Intensive IFR   Very Intensive IFR
Visi :
Ceiling :
>= 8 km
>= 3000ft
5 to 8 km
1000 to 3000 ft
1500m to 5 km
500 to 1000 ft
800 to 1500m
200 to 500 ft
< 800m
< 200 ft
Symbols :   Thunderstorms  Fog  Heavy snow  Heavy precipitations  Wind > 20 kt
SIGMETs :     Misc.  Thunderstorms  Icing  Turbulence  Mountain Waves  Volcanic Ashes






- Airport Elevation : 138 ft
- IATA code : BIO


LEBB - Bilbao

CURRENT METAR :
  • 192130Z 01003KT 320V070 9999 BKN018 BKN025 19/15 Q1013 NOSIG

EXPIRED METARs :
  • 192100Z 00000KT 9999 BKN018 BKN025 19/15 Q1013 NOSIG
  • 192030Z 34003KT 9999 SCT020 BKN030 19/16 Q1013 NOSIG
  • 192000Z VRB01KT 9999 FEW018 BKN030 19/16 Q1013 NOSIG
  • 191930Z 31003KT 270V350 9999 BKN030 19/17 Q1013 NOSIG
  • 191900Z 30005KT 270V340 9999 BKN030 20/17 Q1013 NOSIG

TAF TAF LEBB
Valid from the 19 at 18:00 until the 20 at 18:00 UTC


191700Z 1918/2018 VRB06KT 9999 SCT015 BKN025 TX22/2015Z TN15/2004Z
PROB30
TEMPO 1918/1924 BKN012
BECMG 2006/2008 22012KT
TEMPO 2008/2018 23015G25KT
PROB30
TEMPO 2012/2018 SCT030TCU



MET'MAP, your aeronautical weather chart ! - Copyright ORBIFLY December 2007 - Disclaimer

ORBIFLY MET'MAP TEAM :

Programming & Development : Alexandra Zaïnal
Concept & original design : Baudouin d'Aumeries
Assistance for programming : Marc-Olivier Méhu
Technical & hardware support : Manuel Goepfert

Contact : metmap@orbifly.com




SOURCES & CREDITS :

   NOAA